sensor_id;sensor_type;location;lat;lon;timestamp;P1;durP1;ratioP1;P2;durP2;ratioP2
11121;SDS011;5615;49.304;10.576;2023-11-21T00:01:54;9.70;;;4.63;;
11121;SDS011;5615;49.304;10.576;2023-11-21T00:04:22;10.97;;;5.90;;
11121;SDS011;5615;49.304;10.576;2023-11-21T00:06:50;18.53;;;9.80;;
11121;SDS011;5615;49.304;10.576;2023-11-21T00:09:16;5.73;;;3.80;;
11121;SDS011;5615;49.304;10.576;2023-11-21T00:11:44;13.50;;;5.07;;
11121;SDS011;5615;49.304;10.576;2023-11-21T00:14:11;7.00;;;4.00;;
11121;SDS011;5615;49.304;10.576;2023-11-21T00:16:39;6.30;;;3.80;;
11121;SDS011;5615;49.304;10.576;2023-11-21T00:19:06;8.77;;;3.10;;
11121;SDS011;5615;49.304;10.576;2023-11-21T00:21:33;9.30;;;3.00;;
11121;SDS011;5615;49.304;10.576;2023-11-21T00:24:01;3.17;;;2.60;;
11121;SDS011;5615;49.304;10.576;2023-11-21T00:26:27;4.67;;;3.50;;
11121;SDS011;5615;49.304;10.576;2023-11-21T00:28:56;10.27;;;3.67;;
11121;SDS011;5615;49.304;10.576;2023-11-21T00:31:22;5.07;;;3.00;;
11121;SDS011;5615;49.304;10.576;2023-11-21T00:33:49;5.47;;;3.07;;
11121;SDS011;5615;49.304;10.576;2023-11-21T00:36:16;7.10;;;3.70;;
11121;SDS011;5615;49.304;10.576;2023-11-21T00:38:42;9.23;;;4.40;;
11121;SDS011;5615;49.304;10.576;2023-11-21T00:41:10;8.73;;;6.37;;
11121;SDS011;5615;49.304;10.576;2023-11-21T00:43:37;21.67;;;11.23;;
11121;SDS011;5615;49.304;10.576;2023-11-21T00:46:04;4.20;;;3.47;;
11121;SDS011;5615;49.304;10.576;2023-11-21T00:48:32;8.37;;;3.80;;
11121;SDS011;5615;49.304;10.576;2023-11-21T00:50:58;8.07;;;3.20;;
11121;SDS011;5615;49.304;10.576;2023-11-21T00:53:25;7.50;;;2.73;;
11121;SDS011;5615;49.304;10.576;2023-11-21T00:55:52;7.87;;;3.23;;
11121;SDS011;5615;49.304;10.576;2023-11-21T00:58:23;4.37;;;2.67;;
11121;SDS011;5615;49.304;10.576;2023-11-21T01:00:50;14.07;;;8.13;;
11121;SDS011;5615;49.304;10.576;2023-11-21T01:03:16;6.47;;;4.03;;
11121;SDS011;5615;49.304;10.576;2023-11-21T01:05:43;4.03;;;2.47;;
11121;SDS011;5615;49.304;10.576;2023-11-21T01:08:10;3.20;;;2.33;;
11121;SDS011;5615;49.304;10.576;2023-11-21T01:10:37;4.43;;;2.70;;
11121;SDS011;5615;49.304;10.576;2023-11-21T01:13:03;3.87;;;2.73;;
11121;SDS011;5615;49.304;10.576;2023-11-21T01:15:33;10.03;;;3.20;;
11121;SDS011;5615;49.304;10.576;2023-11-21T01:18:00;3.53;;;2.60;;
11121;SDS011;5615;49.304;10.576;2023-11-21T01:20:27;8.33;;;3.40;;
11121;SDS011;5615;49.304;10.576;2023-11-21T01:22:53;7.80;;;3.60;;
11121;SDS011;5615;49.304;10.576;2023-11-21T01:25:20;5.27;;;3.43;;
11121;SDS011;5615;49.304;10.576;2023-11-21T01:27:47;8.40;;;4.40;;
11121;SDS011;5615;49.304;10.576;2023-11-21T01:30:14;16.47;;;8.47;;
11121;SDS011;5615;49.304;10.576;2023-11-21T01:32:42;12.77;;;6.67;;
11121;SDS011;5615;49.304;10.576;2023-11-21T01:35:09;9.70;;;4.60;;
11121;SDS011;5615;49.304;10.576;2023-11-21T01:37:35;7.93;;;4.53;;
11121;SDS011;5615;49.304;10.576;2023-11-21T01:40:02;6.97;;;4.23;;
11121;SDS011;5615;49.304;10.576;2023-11-21T01:42:33;8.87;;;4.60;;
11121;SDS011;5615;49.304;10.576;2023-11-21T01:45:00;6.27;;;4.40;;
11121;SDS011;5615;49.304;10.576;2023-11-21T01:47:29;8.87;;;5.13;;
11121;SDS011;5615;49.304;10.576;2023-11-21T01:49:58;6.27;;;4.30;;
11121;SDS011;5615;49.304;10.576;2023-11-21T01:52:25;9.27;;;4.77;;
11121;SDS011;5615;49.304;10.576;2023-11-21T01:54:52;6.97;;;4.63;;
11121;SDS011;5615;49.304;10.576;2023-11-21T01:57:19;8.37;;;4.57;;
11121;SDS011;5615;49.304;10.576;2023-11-21T01:59:47;8.10;;;4.30;;
11121;SDS011;5615;49.304;10.576;2023-11-21T02:02:15;6.43;;;4.10;;
11121;SDS011;5615;49.304;10.576;2023-11-21T02:04:42;6.27;;;4.37;;
11121;SDS011;5615;49.304;10.576;2023-11-21T02:07:10;12.07;;;6.83;;
11121;SDS011;5615;49.304;10.576;2023-11-21T02:09:37;7.43;;;3.90;;
11121;SDS011;5615;49.304;10.576;2023-11-21T02:12:07;9.13;;;4.77;;
11121;SDS011;5615;49.304;10.576;2023-11-21T02:14:35;12.10;;;4.97;;
11121;SDS011;5615;49.304;10.576;2023-11-21T02:17:02;8.80;;;5.20;;
11121;SDS011;5615;49.304;10.576;2023-11-21T02:19:29;7.53;;;4.70;;
11121;SDS011;5615;49.304;10.576;2023-11-21T02:21:57;7.77;;;4.47;;
11121;SDS011;5615;49.304;10.576;2023-11-21T02:24:29;10.57;;;4.60;;
11121;SDS011;5615;49.304;10.576;2023-11-21T02:26:56;10.00;;;4.33;;
11121;SDS011;5615;49.304;10.576;2023-11-21T02:29:23;7.13;;;4.27;;
11121;SDS011;5615;49.304;10.576;2023-11-21T02:31:52;6.73;;;4.47;;
11121;SDS011;5615;49.304;10.576;2023-11-21T02:34:20;12.03;;;4.13;;
11121;SDS011;5615;49.304;10.576;2023-11-21T02:36:47;9.83;;;4.50;;
11121;SDS011;5615;49.304;10.576;2023-11-21T02:39:14;9.53;;;4.90;;
11121;SDS011;5615;49.304;10.576;2023-11-21T02:41:42;12.33;;;6.30;;
11121;SDS011;5615;49.304;10.576;2023-11-21T02:44:09;9.73;;;4.73;;
11121;SDS011;5615;49.304;10.576;2023-11-21T02:46:36;10.17;;;4.47;;
11121;SDS011;5615;49.304;10.576;2023-11-21T02:49:05;7.67;;;4.10;;
11121;SDS011;5615;49.304;10.576;2023-11-21T02:51:32;7.87;;;4.03;;
11121;SDS011;5615;49.304;10.576;2023-11-21T02:53:59;5.17;;;3.50;;
11121;SDS011;5615;49.304;10.576;2023-11-21T02:56:27;7.03;;;3.87;;
11121;SDS011;5615;49.304;10.576;2023-11-21T02:58:56;8.83;;;3.97;;
11121;SDS011;5615;49.304;10.576;2023-11-21T03:01:22;8.60;;;4.03;;
11121;SDS011;5615;49.304;10.576;2023-11-21T03:03:50;8.87;;;4.83;;
11121;SDS011;5615;49.304;10.576;2023-11-21T03:06:17;9.53;;;4.60;;
11121;SDS011;5615;49.304;10.576;2023-11-21T03:08:43;9.03;;;4.13;;
11121;SDS011;5615;49.304;10.576;2023-11-21T03:11:10;6.83;;;3.67;;
11121;SDS011;5615;49.304;10.576;2023-11-21T03:13:37;8.73;;;5.33;;
11121;SDS011;5615;49.304;10.576;2023-11-21T03:16:06;9.07;;;4.60;;
11121;SDS011;5615;49.304;10.576;2023-11-21T03:18:33;4.57;;;4.00;;
11121;SDS011;5615;49.304;10.576;2023-11-21T03:21:01;7.23;;;3.97;;
11121;SDS011;5615;49.304;10.576;2023-11-21T03:23:28;8.03;;;4.33;;
11121;SDS011;5615;49.304;10.576;2023-11-21T03:25:54;6.80;;;4.27;;
11121;SDS011;5615;49.304;10.576;2023-11-21T03:28:21;7.27;;;4.67;;
11121;SDS011;5615;49.304;10.576;2023-11-21T03:30:48;9.37;;;4.80;;
11121;SDS011;5615;49.304;10.576;2023-11-21T03:33:16;8.73;;;4.87;;
11121;SDS011;5615;49.304;10.576;2023-11-21T03:35:43;6.80;;;5.00;;
11121;SDS011;5615;49.304;10.576;2023-11-21T03:38:10;6.47;;;4.67;;
11121;SDS011;5615;49.304;10.576;2023-11-21T03:40:37;8.70;;;4.80;;
11121;SDS011;5615;49.304;10.576;2023-11-21T03:43:04;7.00;;;4.87;;
11121;SDS011;5615;49.304;10.576;2023-11-21T03:45:31;8.10;;;5.47;;
11121;SDS011;5615;49.304;10.576;2023-11-21T03:47:58;7.97;;;6.00;;
11121;SDS011;5615;49.304;10.576;2023-11-21T03:50:27;12.33;;;6.23;;
11121;SDS011;5615;49.304;10.576;2023-11-21T03:52:54;9.20;;;6.20;;
11121;SDS011;5615;49.304;10.576;2023-11-21T03:55:21;10.87;;;7.03;;
11121;SDS011;5615;49.304;10.576;2023-11-21T03:57:48;9.87;;;6.37;;
11121;SDS011;5615;49.304;10.576;2023-11-21T04:00:15;14.07;;;8.97;;
11121;SDS011;5615;49.304;10.576;2023-11-21T04:02:42;17.40;;;9.27;;
11121;SDS011;5615;49.304;10.576;2023-11-21T04:05:09;11.77;;;8.30;;
11121;SDS011;5615;49.304;10.576;2023-11-21T04:07:37;15.97;;;9.93;;
11121;SDS011;5615;49.304;10.576;2023-11-21T04:10:04;11.80;;;9.23;;
11121;SDS011;5615;49.304;10.576;2023-11-21T04:12:33;14.20;;;8.17;;
11121;SDS011;5615;49.304;10.576;2023-11-21T04:14:59;10.37;;;7.77;;
11121;SDS011;5615;49.304;10.576;2023-11-21T04:17:26;11.20;;;7.17;;
11121;SDS011;5615;49.304;10.576;2023-11-21T04:19:52;12.57;;;7.50;;
11121;SDS011;5615;49.304;10.576;2023-11-21T04:22:19;10.87;;;7.57;;
11121;SDS011;5615;49.304;10.576;2023-11-21T04:24:47;12.23;;;7.97;;
11121;SDS011;5615;49.304;10.576;2023-11-21T04:27:14;11.90;;;7.57;;
11121;SDS011;5615;49.304;10.576;2023-11-21T04:29:43;10.20;;;7.30;;
11121;SDS011;5615;49.304;10.576;2023-11-21T04:32:09;10.67;;;7.47;;
11121;SDS011;5615;49.304;10.576;2023-11-21T04:34:37;10.13;;;6.83;;
11121;SDS011;5615;49.304;10.576;2023-11-21T04:37:04;12.97;;;7.43;;
11121;SDS011;5615;49.304;10.576;2023-11-21T04:39:31;10.17;;;6.67;;
11121;SDS011;5615;49.304;10.576;2023-11-21T04:41:59;11.03;;;8.07;;
11121;SDS011;5615;49.304;10.576;2023-11-21T04:44:26;10.40;;;7.00;;
11121;SDS011;5615;49.304;10.576;2023-11-21T04:46:52;12.10;;;7.30;;
11121;SDS011;5615;49.304;10.576;2023-11-21T04:49:19;10.37;;;7.03;;
11121;SDS011;5615;49.304;10.576;2023-11-21T04:51:45;9.60;;;6.90;;
11121;SDS011;5615;49.304;10.576;2023-11-21T04:54:12;10.63;;;7.10;;
11121;SDS011;5615;49.304;10.576;2023-11-21T04:56:39;9.93;;;7.30;;
11121;SDS011;5615;49.304;10.576;2023-11-21T04:59:07;10.07;;;6.43;;
11121;SDS011;5615;49.304;10.576;2023-11-21T05:01:34;8.10;;;5.60;;
11121;SDS011;5615;49.304;10.576;2023-11-21T05:04:01;10.53;;;6.40;;
11121;SDS011;5615;49.304;10.576;2023-11-21T05:06:28;7.67;;;5.70;;
11121;SDS011;5615;49.304;10.576;2023-11-21T05:08:54;8.20;;;6.27;;
11121;SDS011;5615;49.304;10.576;2023-11-21T05:11:24;12.07;;;6.10;;
11121;SDS011;5615;49.304;10.576;2023-11-21T05:13:51;8.63;;;5.57;;
11121;SDS011;5615;49.304;10.576;2023-11-21T05:16:19;9.83;;;7.30;;
11121;SDS011;5615;49.304;10.576;2023-11-21T05:18:46;9.00;;;7.23;;
11121;SDS011;5615;49.304;10.576;2023-11-21T05:21:15;14.70;;;7.30;;
11121;SDS011;5615;49.304;10.576;2023-11-21T05:23:42;9.40;;;6.40;;
11121;SDS011;5615;49.304;10.576;2023-11-21T05:26:08;14.40;;;9.10;;
11121;SDS011;5615;49.304;10.576;2023-11-21T05:28:35;10.93;;;6.67;;
11121;SDS011;5615;49.304;10.576;2023-11-21T05:31:02;13.53;;;6.50;;
11121;SDS011;5615;49.304;10.576;2023-11-21T05:33:30;8.87;;;6.80;;
11121;SDS011;5615;49.304;10.576;2023-11-21T05:35:58;10.43;;;7.07;;
11121;SDS011;5615;49.304;10.576;2023-11-21T05:38:24;10.73;;;6.50;;
11121;SDS011;5615;49.304;10.576;2023-11-21T05:40:51;9.67;;;6.83;;
11121;SDS011;5615;49.304;10.576;2023-11-21T05:43:18;11.67;;;6.77;;
11121;SDS011;5615;49.304;10.576;2023-11-21T05:45:44;11.20;;;7.47;;
11121;SDS011;5615;49.304;10.576;2023-11-21T05:48:11;9.43;;;7.20;;
11121;SDS011;5615;49.304;10.576;2023-11-21T05:50:39;11.93;;;6.57;;
11121;SDS011;5615;49.304;10.576;2023-11-21T05:53:06;13.33;;;8.03;;
11121;SDS011;5615;49.304;10.576;2023-11-21T05:55:35;10.03;;;7.40;;
11121;SDS011;5615;49.304;10.576;2023-11-21T05:58:02;10.03;;;7.87;;
11121;SDS011;5615;49.304;10.576;2023-11-21T06:00:28;9.13;;;7.53;;
11121;SDS011;5615;49.304;10.576;2023-11-21T06:02:56;11.30;;;8.53;;
11121;SDS011;5615;49.304;10.576;2023-11-21T06:05:24;12.40;;;9.37;;
11121;SDS011;5615;49.304;10.576;2023-11-21T06:07:53;19.23;;;13.70;;
11121;SDS011;5615;49.304;10.576;2023-11-21T06:10:21;12.10;;;9.20;;
11121;SDS011;5615;49.304;10.576;2023-11-21T06:12:48;14.50;;;9.93;;
11121;SDS011;5615;49.304;10.576;2023-11-21T06:15:15;13.10;;;9.53;;
11121;SDS011;5615;49.304;10.576;2023-11-21T06:17:44;12.70;;;9.37;;
11121;SDS011;5615;49.304;10.576;2023-11-21T06:20:14;12.63;;;9.07;;
11121;SDS011;5615;49.304;10.576;2023-11-21T06:22:43;12.40;;;9.10;;
11121;SDS011;5615;49.304;10.576;2023-11-21T06:25:12;12.07;;;8.70;;
11121;SDS011;5615;49.304;10.576;2023-11-21T06:27:40;11.87;;;8.17;;
11121;SDS011;5615;49.304;10.576;2023-11-21T06:30:07;11.10;;;8.00;;
11121;SDS011;5615;49.304;10.576;2023-11-21T06:32:35;9.63;;;7.60;;
11121;SDS011;5615;49.304;10.576;2023-11-21T06:35:02;11.20;;;8.03;;
11121;SDS011;5615;49.304;10.576;2023-11-21T06:37:29;8.67;;;7.63;;
11121;SDS011;5615;49.304;10.576;2023-11-21T06:39:57;10.17;;;7.40;;
11121;SDS011;5615;49.304;10.576;2023-11-21T06:42:25;9.97;;;7.97;;
11121;SDS011;5615;49.304;10.576;2023-11-21T06:44:54;9.37;;;6.90;;
11121;SDS011;5615;49.304;10.576;2023-11-21T06:47:22;9.53;;;7.53;;
11121;SDS011;5615;49.304;10.576;2023-11-21T06:49:50;10.57;;;7.60;;
11121;SDS011;5615;49.304;10.576;2023-11-21T06:52:17;8.87;;;7.20;;
11121;SDS011;5615;49.304;10.576;2023-11-21T06:54:44;9.70;;;7.07;;
11121;SDS011;5615;49.304;10.576;2023-11-21T06:57:12;13.33;;;7.80;;
11121;SDS011;5615;49.304;10.576;2023-11-21T06:59:40;11.50;;;7.77;;
11121;SDS011;5615;49.304;10.576;2023-11-21T07:02:07;10.07;;;7.30;;
11121;SDS011;5615;49.304;10.576;2023-11-21T07:04:34;9.87;;;7.20;;
11121;SDS011;5615;49.304;10.576;2023-11-21T07:07:01;8.50;;;6.87;;
11121;SDS011;5615;49.304;10.576;2023-11-21T07:09:28;9.60;;;6.90;;
11121;SDS011;5615;49.304;10.576;2023-11-21T07:11:56;7.53;;;6.20;;
11121;SDS011;5615;49.304;10.576;2023-11-21T07:14:22;10.30;;;6.70;;
11121;SDS011;5615;49.304;10.576;2023-11-21T07:16:50;9.10;;;6.70;;
11121;SDS011;5615;49.304;10.576;2023-11-21T07:19:17;8.97;;;7.10;;
11121;SDS011;5615;49.304;10.576;2023-11-21T07:21:44;8.80;;;6.33;;
11121;SDS011;5615;49.304;10.576;2023-11-21T07:24:11;7.30;;;6.40;;
11121;SDS011;5615;49.304;10.576;2023-11-21T07:26:38;10.37;;;7.20;;
11121;SDS011;5615;49.304;10.576;2023-11-21T07:29:04;8.77;;;6.70;;
11121;SDS011;5615;49.304;10.576;2023-11-21T07:31:32;8.70;;;7.40;;
11121;SDS011;5615;49.304;10.576;2023-11-21T07:34:00;8.37;;;7.00;;
11121;SDS011;5615;49.304;10.576;2023-11-21T07:36:27;7.50;;;6.33;;
11121;SDS011;5615;49.304;10.576;2023-11-21T07:38:54;9.27;;;7.07;;
11121;SDS011;5615;49.304;10.576;2023-11-21T07:41:21;9.60;;;6.70;;
11121;SDS011;5615;49.304;10.576;2023-11-21T07:43:48;8.30;;;7.03;;
11121;SDS011;5615;49.304;10.576;2023-11-21T07:46:14;10.03;;;7.10;;
11121;SDS011;5615;49.304;10.576;2023-11-21T07:48:41;8.47;;;7.43;;
11121;SDS011;5615;49.304;10.576;2023-11-21T07:51:10;8.97;;;7.17;;
11121;SDS011;5615;49.304;10.576;2023-11-21T07:53:38;7.77;;;6.50;;
11121;SDS011;5615;49.304;10.576;2023-11-21T07:56:05;10.00;;;7.57;;
11121;SDS011;5615;49.304;10.576;2023-11-21T07:58:33;8.00;;;6.70;;
11121;SDS011;5615;49.304;10.576;2023-11-21T08:01:01;8.83;;;6.57;;
11121;SDS011;5615;49.304;10.576;2023-11-21T08:03:28;10.40;;;7.53;;
11121;SDS011;5615;49.304;10.576;2023-11-21T08:05:55;10.33;;;7.43;;
11121;SDS011;5615;49.304;10.576;2023-11-21T08:08:24;9.53;;;6.47;;
11121;SDS011;5615;49.304;10.576;2023-11-21T08:10:50;9.57;;;6.97;;
11121;SDS011;5615;49.304;10.576;2023-11-21T08:13:21;7.00;;;5.70;;
11121;SDS011;5615;49.304;10.576;2023-11-21T08:15:48;8.30;;;7.10;;
11121;SDS011;5615;49.304;10.576;2023-11-21T08:18:14;7.33;;;6.53;;
11121;SDS011;5615;49.304;10.576;2023-11-21T08:20:42;11.80;;;7.03;;
11121;SDS011;5615;49.304;10.576;2023-11-21T08:23:12;9.93;;;8.20;;
11121;SDS011;5615;49.304;10.576;2023-11-21T08:25:41;9.33;;;8.10;;
11121;SDS011;5615;49.304;10.576;2023-11-21T08:28:08;11.17;;;8.50;;
11121;SDS011;5615;49.304;10.576;2023-11-21T08:30:35;11.30;;;9.13;;
11121;SDS011;5615;49.304;10.576;2023-11-21T08:33:02;10.40;;;7.60;;
11121;SDS011;5615;49.304;10.576;2023-11-21T08:35:29;8.20;;;7.17;;
11121;SDS011;5615;49.304;10.576;2023-11-21T08:37:56;7.47;;;6.50;;
11121;SDS011;5615;49.304;10.576;2023-11-21T08:40:22;7.60;;;5.93;;
11121;SDS011;5615;49.304;10.576;2023-11-21T08:42:51;6.60;;;5.73;;
11121;SDS011;5615;49.304;10.576;2023-11-21T08:45:18;8.53;;;6.23;;
11121;SDS011;5615;49.304;10.576;2023-11-21T08:47:46;5.93;;;5.30;;
11121;SDS011;5615;49.304;10.576;2023-11-21T08:50:12;6.10;;;5.30;;
11121;SDS011;5615;49.304;10.576;2023-11-21T08:52:40;7.77;;;6.40;;
11121;SDS011;5615;49.304;10.576;2023-11-21T08:55:07;6.90;;;6.20;;
11121;SDS011;5615;49.304;10.576;2023-11-21T08:57:37;7.63;;;6.93;;
11121;SDS011;5615;49.304;10.576;2023-11-21T09:00:07;7.73;;;6.57;;
11121;SDS011;5615;49.304;10.576;2023-11-21T09:02:36;5.57;;;5.07;;
11121;SDS011;5615;49.304;10.576;2023-11-21T09:05:04;5.60;;;5.10;;
11121;SDS011;5615;49.304;10.576;2023-11-21T09:07:31;4.50;;;4.10;;
11121;SDS011;5615;49.304;10.576;2023-11-21T09:09:58;5.33;;;3.90;;
11121;SDS011;5615;49.304;10.576;2023-11-21T09:12:25;5.00;;;4.50;;
11121;SDS011;5615;49.304;10.576;2023-11-21T09:14:51;4.47;;;4.03;;
11121;SDS011;5615;49.304;10.576;2023-11-21T09:17:19;5.07;;;3.77;;
11121;SDS011;5615;49.304;10.576;2023-11-21T09:19:46;3.90;;;3.60;;
11121;SDS011;5615;49.304;10.576;2023-11-21T09:22:16;8.73;;;3.60;;
11121;SDS011;5615;49.304;10.576;2023-11-21T09:24:42;4.33;;;3.80;;
11121;SDS011;5615;49.304;10.576;2023-11-21T09:27:09;4.07;;;3.40;;
11121;SDS011;5615;49.304;10.576;2023-11-21T09:29:36;5.07;;;4.03;;
11121;SDS011;5615;49.304;10.576;2023-11-21T09:32:03;4.53;;;4.13;;
11121;SDS011;5615;49.304;10.576;2023-11-21T09:34:32;5.57;;;4.20;;
11121;SDS011;5615;49.304;10.576;2023-11-21T09:37:01;4.53;;;4.10;;
11121;SDS011;5615;49.304;10.576;2023-11-21T09:39:30;5.23;;;3.73;;
11121;SDS011;5615;49.304;10.576;2023-11-21T09:41:59;3.73;;;3.10;;
11121;SDS011;5615;49.304;10.576;2023-11-21T09:44:32;2.27;;;1.90;;
11121;SDS011;5615;49.304;10.576;2023-11-21T09:47:02;2.00;;;1.80;;
11121;SDS011;5615;49.304;10.576;2023-11-21T09:49:30;2.77;;;2.20;;
11121;SDS011;5615;49.304;10.576;2023-11-21T09:51:59;2.37;;;2.00;;
11121;SDS011;5615;49.304;10.576;2023-11-21T09:54:29;2.13;;;1.90;;
11121;SDS011;5615;49.304;10.576;2023-11-21T09:56:57;3.63;;;1.83;;
11121;SDS011;5615;49.304;10.576;2023-11-21T09:59:25;2.13;;;1.80;;
11121;SDS011;5615;49.304;10.576;2023-11-21T10:01:58;3.70;;;2.30;;
11121;SDS011;5615;49.304;10.576;2023-11-21T10:04:25;2.50;;;2.20;;
11121;SDS011;5615;49.304;10.576;2023-11-21T10:06:55;3.53;;;1.80;;
11121;SDS011;5615;49.304;10.576;2023-11-21T10:09:23;2.93;;;2.10;;
11121;SDS011;5615;49.304;10.576;2023-11-21T10:11:52;3.00;;;2.30;;
11121;SDS011;5615;49.304;10.576;2023-11-21T10:14:19;3.00;;;2.57;;
11121;SDS011;5615;49.304;10.576;2023-11-21T10:16:50;3.40;;;2.73;;
11121;SDS011;5615;49.304;10.576;2023-11-21T10:19:18;3.03;;;2.73;;
11121;SDS011;5615;49.304;10.576;2023-11-21T10:21:46;3.73;;;3.00;;
11121;SDS011;5615;49.304;10.576;2023-11-21T10:24:14;4.27;;;3.30;;
11121;SDS011;5615;49.304;10.576;2023-11-21T10:26:41;4.70;;;3.63;;
11121;SDS011;5615;49.304;10.576;2023-11-21T10:29:08;4.73;;;4.00;;
11121;SDS011;5615;49.304;10.576;2023-11-21T10:31:37;6.00;;;4.20;;
11121;SDS011;5615;49.304;10.576;2023-11-21T10:34:12;6.17;;;5.30;;
11121;SDS011;5615;49.304;10.576;2023-11-21T10:36:39;15.83;;;11.30;;
11121;SDS011;5615;49.304;10.576;2023-11-21T10:39:06;11.70;;;8.90;;
11121;SDS011;5615;49.304;10.576;2023-11-21T10:41:34;8.40;;;6.83;;
11121;SDS011;5615;49.304;10.576;2023-11-21T10:44:01;7.17;;;6.43;;
11121;SDS011;5615;49.304;10.576;2023-11-21T10:46:29;7.80;;;6.40;;
11121;SDS011;5615;49.304;10.576;2023-11-21T10:48:56;6.63;;;5.77;;
11121;SDS011;5615;49.304;10.576;2023-11-21T10:51:23;6.40;;;5.27;;
11121;SDS011;5615;49.304;10.576;2023-11-21T10:53:51;6.30;;;5.53;;
11121;SDS011;5615;49.304;10.576;2023-11-21T10:56:18;6.00;;;5.33;;
11121;SDS011;5615;49.304;10.576;2023-11-21T10:58:47;6.77;;;5.87;;
11121;SDS011;5615;49.304;10.576;2023-11-21T11:01:15;8.67;;;5.67;;
11121;SDS011;5615;49.304;10.576;2023-11-21T11:03:46;7.70;;;5.67;;
11121;SDS011;5615;49.304;10.576;2023-11-21T11:06:13;7.00;;;4.70;;
11121;SDS011;5615;49.304;10.576;2023-11-21T11:08:40;6.27;;;4.97;;
11121;SDS011;5615;49.304;10.576;2023-11-21T11:11:07;7.00;;;5.13;;
11121;SDS011;5615;49.304;10.576;2023-11-21T11:13:35;5.73;;;4.97;;
11121;SDS011;5615;49.304;10.576;2023-11-21T11:16:05;5.60;;;5.10;;
11121;SDS011;5615;49.304;10.576;2023-11-21T11:18:35;7.37;;;5.60;;
11121;SDS011;5615;49.304;10.576;2023-11-21T11:21:06;5.93;;;5.10;;
11121;SDS011;5615;49.304;10.576;2023-11-21T11:23:49;7.13;;;5.67;;
11121;SDS011;5615;49.304;10.576;2023-11-21T11:26:32;5.67;;;4.57;;
11121;SDS011;5615;49.304;10.576;2023-11-21T11:29:08;6.63;;;4.57;;
11121;SDS011;5615;49.304;10.576;2023-11-21T11:31:48;8.07;;;5.80;;
11121;SDS011;5615;49.304;10.576;2023-11-21T11:34:28;9.27;;;7.23;;
11121;SDS011;5615;49.304;10.576;2023-11-21T11:36:59;6.73;;;5.87;;
11121;SDS011;5615;49.304;10.576;2023-11-21T11:39:28;5.30;;;4.67;;
11121;SDS011;5615;49.304;10.576;2023-11-21T11:41:55;5.73;;;4.90;;
11121;SDS011;5615;49.304;10.576;2023-11-21T11:47:19;5.40;;;4.30;;
11121;SDS011;5615;49.304;10.576;2023-11-21T11:49:57;6.00;;;5.40;;
11121;SDS011;5615;49.304;10.576;2023-11-21T11:52:31;4.80;;;4.30;;
11121;SDS011;5615;49.304;10.576;2023-11-21T11:54:59;9.03;;;5.50;;
11121;SDS011;5615;49.304;10.576;2023-11-21T11:57:26;5.27;;;4.77;;
11121;SDS011;5615;49.304;10.576;2023-11-21T12:00:12;6.20;;;4.87;;
11121;SDS011;5615;49.304;10.576;2023-11-21T12:02:46;5.83;;;5.33;;
11121;SDS011;5615;49.304;10.576;2023-11-21T12:05:14;8.53;;;5.20;;
11121;SDS011;5615;49.304;10.576;2023-11-21T12:07:44;9.83;;;5.37;;
11121;SDS011;5615;49.304;10.576;2023-11-21T12:10:13;6.83;;;4.50;;
11121;SDS011;5615;49.304;10.576;2023-11-21T12:12:43;5.83;;;4.57;;
11121;SDS011;5615;49.304;10.576;2023-11-21T12:15:11;5.53;;;4.97;;
11121;SDS011;5615;49.304;10.576;2023-11-21T12:17:39;6.37;;;4.93;;
11121;SDS011;5615;49.304;10.576;2023-11-21T12:20:09;5.23;;;4.67;;
11121;SDS011;5615;49.304;10.576;2023-11-21T12:22:41;6.33;;;5.00;;
11121;SDS011;5615;49.304;10.576;2023-11-21T12:25:09;5.73;;;4.80;;
11121;SDS011;5615;49.304;10.576;2023-11-21T12:27:40;4.73;;;4.33;;
11121;SDS011;5615;49.304;10.576;2023-11-21T12:30:08;8.03;;;5.47;;
11121;SDS011;5615;49.304;10.576;2023-11-21T12:32:38;5.43;;;4.90;;
11121;SDS011;5615;49.304;10.576;2023-11-21T12:35:05;5.73;;;5.07;;
11121;SDS011;5615;49.304;10.576;2023-11-21T12:37:34;6.30;;;5.10;;
11121;SDS011;5615;49.304;10.576;2023-11-21T12:40:00;5.43;;;4.73;;
11121;SDS011;5615;49.304;10.576;2023-11-21T12:42:27;5.07;;;4.57;;
11121;SDS011;5615;49.304;10.576;2023-11-21T12:45:09;4.47;;;4.07;;
11121;SDS011;5615;49.304;10.576;2023-11-21T12:47:45;5.20;;;4.63;;
11121;SDS011;5615;49.304;10.576;2023-11-21T12:50:12;5.30;;;4.43;;
11121;SDS011;5615;49.304;10.576;2023-11-21T12:52:42;5.00;;;4.20;;
11121;SDS011;5615;49.304;10.576;2023-11-21T12:55:15;4.93;;;4.43;;
11121;SDS011;5615;49.304;10.576;2023-11-21T12:57:43;5.33;;;4.80;;
11121;SDS011;5615;49.304;10.576;2023-11-21T13:00:11;5.03;;;4.20;;
11121;SDS011;5615;49.304;10.576;2023-11-21T13:02:50;6.07;;;4.60;;
11121;SDS011;5615;49.304;10.576;2023-11-21T13:05:23;4.77;;;4.10;;
11121;SDS011;5615;49.304;10.576;2023-11-21T13:07:51;5.83;;;4.67;;
11121;SDS011;5615;49.304;10.576;2023-11-21T13:10:19;5.10;;;4.30;;
11121;SDS011;5615;49.304;10.576;2023-11-21T13:12:50;5.90;;;4.67;;
11121;SDS011;5615;49.304;10.576;2023-11-21T13:15:18;6.60;;;4.97;;
11121;SDS011;5615;49.304;10.576;2023-11-21T13:17:45;6.00;;;4.77;;
11121;SDS011;5615;49.304;10.576;2023-11-21T13:20:12;5.00;;;4.50;;
11121;SDS011;5615;49.304;10.576;2023-11-21T13:22:44;7.13;;;4.93;;
11121;SDS011;5615;49.304;10.576;2023-11-21T13:25:15;7.17;;;4.90;;
11121;SDS011;5615;49.304;10.576;2023-11-21T13:27:43;6.90;;;4.90;;
11121;SDS011;5615;49.304;10.576;2023-11-21T13:30:11;5.53;;;4.97;;
11121;SDS011;5615;49.304;10.576;2023-11-21T13:32:40;5.70;;;5.10;;
11121;SDS011;5615;49.304;10.576;2023-11-21T13:35:07;6.77;;;5.00;;
11121;SDS011;5615;49.304;10.576;2023-11-21T13:37:40;5.83;;;5.23;;
11121;SDS011;5615;49.304;10.576;2023-11-21T13:40:07;6.23;;;5.63;;
11121;SDS011;5615;49.304;10.576;2023-11-21T13:42:40;5.60;;;5.10;;
11121;SDS011;5615;49.304;10.576;2023-11-21T13:45:08;6.30;;;5.70;;
11121;SDS011;5615;49.304;10.576;2023-11-21T13:47:37;6.27;;;5.20;;
11121;SDS011;5615;49.304;10.576;2023-11-21T13:50:05;5.53;;;4.80;;
11121;SDS011;5615;49.304;10.576;2023-11-21T13:52:41;5.07;;;4.57;;
11121;SDS011;5615;49.304;10.576;2023-11-21T13:55:09;5.40;;;4.90;;
11121;SDS011;5615;49.304;10.576;2023-11-21T13:57:41;4.90;;;4.40;;
11121;SDS011;5615;49.304;10.576;2023-11-21T14:00:12;4.67;;;4.27;;
11121;SDS011;5615;49.304;10.576;2023-11-21T14:03:00;4.53;;;4.13;;
11121;SDS011;5615;49.304;10.576;2023-11-21T14:05:27;5.07;;;4.13;;
11121;SDS011;5615;49.304;10.576;2023-11-21T14:07:56;4.63;;;4.13;;
11121;SDS011;5615;49.304;10.576;2023-11-21T14:10:28;4.43;;;3.92;;
11121;SDS011;5615;49.304;10.576;2023-11-21T14:13:03;4.67;;;4.17;;
11121;SDS011;5615;49.304;10.576;2023-11-21T14:15:30;4.10;;;3.70;;
11121;SDS011;5615;49.304;10.576;2023-11-21T14:17:58;6.17;;;4.80;;
11121;SDS011;5615;49.304;10.576;2023-11-21T14:20:27;4.67;;;4.27;;
11121;SDS011;5615;49.304;10.576;2023-11-21T14:22:55;4.33;;;3.77;;
11121;SDS011;5615;49.304;10.576;2023-11-21T14:25:22;5.03;;;3.90;;
11121;SDS011;5615;49.304;10.576;2023-11-21T14:27:49;4.83;;;3.90;;
11121;SDS011;5615;49.304;10.576;2023-11-21T14:30:17;4.80;;;4.17;;
11121;SDS011;5615;49.304;10.576;2023-11-21T14:32:46;7.27;;;4.63;;
11121;SDS011;5615;49.304;10.576;2023-11-21T14:35:13;7.43;;;4.60;;
11121;SDS011;5615;49.304;10.576;2023-11-21T14:37:39;4.77;;;4.27;;
11121;SDS011;5615;49.304;10.576;2023-11-21T14:40:06;6.23;;;4.60;;
11121;SDS011;5615;49.304;10.576;2023-11-21T14:42:34;5.43;;;4.27;;
11121;SDS011;5615;49.304;10.576;2023-11-21T14:45:04;5.90;;;4.70;;
11121;SDS011;5615;49.304;10.576;2023-11-21T14:47:33;6.20;;;4.80;;
11121;SDS011;5615;49.304;10.576;2023-11-21T14:50:00;7.10;;;4.87;;
11121;SDS011;5615;49.304;10.576;2023-11-21T14:52:47;7.07;;;4.87;;
11121;SDS011;5615;49.304;10.576;2023-11-21T14:55:20;5.80;;;4.83;;